createdAt,value
2022-08-22T00:00:38.631Z,19.50
2022-08-22T00:02:46.056Z,20.40
2022-08-22T00:02:47.157Z,20.30
2022-08-22T00:03:15.953Z,20.20
2022-08-22T00:03:26.911Z,19.50
2022-08-22T00:06:12.728Z,19.50
2022-08-22T00:09:06.689Z,19.50
2022-08-22T00:11:47.675Z,19.50
2022-08-22T00:14:23.374Z,19.50
2022-08-22T00:17:04.207Z,19.50
2022-08-22T00:19:50.302Z,19.50
2022-08-22T00:22:26.949Z,19.50
2022-08-22T00:25:24.714Z,19.50
2022-08-22T00:28:00.518Z,19.50
2022-08-22T00:30:31.562Z,19.50
2022-08-22T00:33:06.335Z,19.40
2022-08-22T00:35:45.084Z,19.50
2022-08-22T00:38:22.017Z,19.40
2022-08-22T00:41:02.461Z,19.40
2022-08-22T00:44:18.400Z,19.40
2022-08-22T00:47:26.647Z,19.40
2022-08-22T00:50:20.371Z,19.40
2022-08-22T00:53:38.974Z,19.30
2022-08-22T00:56:39.383Z,19.40
2022-08-22T00:59:39.541Z,19.50
2022-08-22T01:02:30.105Z,19.30
2022-08-22T01:05:18.740Z,19.30
2022-08-22T01:08:17.576Z,19.30
2022-08-22T01:11:12.456Z,19.30
2022-08-22T01:14:08.120Z,19.20
2022-08-22T01:17:25.068Z,19.20
2022-08-22T01:20:39.773Z,19.10
2022-08-22T01:24:02.573Z,19.10
2022-08-22T01:27:23.895Z,19.10
2022-08-22T01:30:32.617Z,19.00
2022-08-22T01:33:48.450Z,18.90
2022-08-22T01:36:59.810Z,18.70
2022-08-22T01:40:14.667Z,18.60
2022-08-22T01:43:10.239Z,18.50
2022-08-22T01:46:26.897Z,18.50
2022-08-22T01:49:08.680Z,18.40
2022-08-22T01:51:48.545Z,18.40
2022-08-22T01:54:36.094Z,18.40
2022-08-22T01:57:09.405Z,18.40
2022-08-22T01:59:42.530Z,18.50
2022-08-22T02:02:58.343Z,18.50
2022-08-22T02:05:37.518Z,18.50
2022-08-22T02:08:23.157Z,18.40
2022-08-22T02:11:04.711Z,18.30
2022-08-22T02:13:58.753Z,18.30
2022-08-22T02:16:38.940Z,18.20
2022-08-22T02:19:27.176Z,18.20
2022-08-22T02:22:06.352Z,18.20
2022-08-22T02:24:52.347Z,18.10
2022-08-22T02:27:36.189Z,18.10
2022-08-22T02:30:12.518Z,18.10
2022-08-22T02:32:59.127Z,18.10
2022-08-22T02:35:36.524Z,18.00
2022-08-22T02:38:25.999Z,18.00
2022-08-22T02:41:16.320Z,18.00
2022-08-22T02:43:53.596Z,18.00
2022-08-22T02:46:30.950Z,18.00
2022-08-22T02:49:10.396Z,18.00
2022-08-22T02:51:56.430Z,17.90
2022-08-22T02:54:38.016Z,17.90
2022-08-22T02:57:15.235Z,17.80
2022-08-22T03:00:30.910Z,17.80
2022-08-22T03:03:06.748Z,17.80
2022-08-22T03:05:55.982Z,17.70
2022-08-22T03:08:32.065Z,17.60
2022-08-22T03:11:17.008Z,17.60
2022-08-22T03:14:06.327Z,17.60
2022-08-22T03:16:45.010Z,17.50
2022-08-22T03:19:21.695Z,17.50
2022-08-22T03:22:02.136Z,17.50
2022-08-22T03:24:46.041Z,17.50
2022-08-22T03:27:32.549Z,17.50
2022-08-22T03:30:21.350Z,17.50
2022-08-22T03:32:55.756Z,17.40
2022-08-22T03:35:36.313Z,17.40
2022-08-22T03:38:23.468Z,17.40
2022-08-22T03:41:21.351Z,17.30
2022-08-22T03:44:48.396Z,17.20
2022-08-22T03:48:20.546Z,17.20
2022-08-22T03:51:23.629Z,17.10
2022-08-22T03:54:47.030Z,17.00
2022-08-22T03:58:19.189Z,16.90
2022-08-22T04:01:42.495Z,16.80
2022-08-22T04:05:14.326Z,16.70
2022-08-22T04:08:26.633Z,16.70
2022-08-22T04:11:30.398Z,16.60
2022-08-22T04:14:44.221Z,16.50
2022-08-22T04:18:05.212Z,16.50
2022-08-22T04:21:20.361Z,16.50
2022-08-22T04:24:24.932Z,16.50
2022-08-22T04:26:59.258Z,16.50
2022-08-22T04:29:39.992Z,16.50
2022-08-22T04:32:18.953Z,16.50
2022-08-22T04:34:55.237Z,16.40
2022-08-22T04:37:45.363Z,16.50
2022-08-22T04:40:25.338Z,16.50
2022-08-22T04:43:00.370Z,16.40
2022-08-22T04:45:38.797Z,16.30
2022-08-22T04:48:17.306Z,16.30
2022-08-22T04:50:58.117Z,16.20
2022-08-22T04:54:25.688Z,16.20
2022-08-22T04:57:15.101Z,16.30
2022-08-22T04:59:44.396Z,16.30
2022-08-22T05:02:21.005Z,16.40
2022-08-22T05:04:57.152Z,16.40
2022-08-22T05:07:36.250Z,16.50
2022-08-22T05:10:14.506Z,16.50
2022-08-22T05:12:50.195Z,16.50
2022-08-22T05:15:23.644Z,16.60
2022-08-22T05:17:56.313Z,16.60
2022-08-22T05:20:28.621Z,16.80
2022-08-22T05:23:02.699Z,16.70
2022-08-22T05:25:40.743Z,16.80
2022-08-22T05:28:16.270Z,16.90
2022-08-22T05:30:48.567Z,16.90
2022-08-22T05:33:25.976Z,17.00
2022-08-22T05:36:03.606Z,17.10
2022-08-22T05:38:37.255Z,17.20
2022-08-22T05:41:11.991Z,17.30
2022-08-22T05:43:45.587Z,17.40
2022-08-22T05:46:26.969Z,17.50
2022-08-22T05:49:00.618Z,17.60
2022-08-22T05:51:40.869Z,17.60
2022-08-22T05:54:17.306Z,17.60
2022-08-22T05:56:55.966Z,17.60
2022-08-22T05:59:30.687Z,17.70
2022-08-22T06:02:11.389Z,17.70
2022-08-22T06:04:50.079Z,17.80
2022-08-22T06:07:24.572Z,17.90
2022-08-22T06:10:20.861Z,18.00
2022-08-22T06:12:59.243Z,18.10
2022-08-22T06:15:37.658Z,18.30
2022-08-22T06:18:14.857Z,18.50
2022-08-22T06:20:49.145Z,18.50
2022-08-22T06:23:24.705Z,18.70
2022-08-22T06:25:58.397Z,18.80
2022-08-22T06:28:35.364Z,18.90
2022-08-22T06:31:06.394Z,19.10
2022-08-22T06:33:45.451Z,19.20
2022-08-22T06:36:34.235Z,19.30
2022-08-22T06:39:18.537Z,19.50
2022-08-22T06:41:54.096Z,19.60
2022-08-22T06:44:28.972Z,19.80
2022-08-22T06:47:02.417Z,19.90
2022-08-22T06:49:33.937Z,20.10
2022-08-22T06:52:08.440Z,20.20
2022-08-22T06:54:44.811Z,20.40
2022-08-22T06:57:30.845Z,20.60
2022-08-22T07:00:06.705Z,20.80
2022-08-22T07:02:43.906Z,20.90
2022-08-22T07:05:20.696Z,20.90
2022-08-22T07:07:50.704Z,21.00
2022-08-22T07:10:22.656Z,21.10
2022-08-22T07:12:55.590Z,21.20
2022-08-22T07:15:36.863Z,21.40
2022-08-22T07:18:10.087Z,21.50
2022-08-22T07:20:45.246Z,21.60
2022-08-22T07:23:27.385Z,21.70
2022-08-22T07:26:16.053Z,21.80
2022-08-22T07:28:57.963Z,21.90
2022-08-22T07:31:38.812Z,22.10
2022-08-22T07:34:33.410Z,22.20
2022-08-22T07:37:10.498Z,22.40
2022-08-22T07:39:50.350Z,22.60
2022-08-22T07:42:25.720Z,22.80
2022-08-22T07:45:10.161Z,23.00
2022-08-22T07:48:04.462Z,23.10
2022-08-22T07:50:39.718Z,23.20
2022-08-22T07:53:21.258Z,23.40
2022-08-22T07:55:52.933Z,23.40
2022-08-22T07:58:26.110Z,23.50
2022-08-22T08:00:55.347Z,23.40
2022-08-22T08:03:30.873Z,23.40
2022-08-22T08:06:02.160Z,23.30
2022-08-22T08:08:38.846Z,23.30
2022-08-22T08:11:12.616Z,23.30
2022-08-22T08:13:46.107Z,23.50
2022-08-22T08:16:23.098Z,23.50
2022-08-22T08:18:58.018Z,23.60
2022-08-22T08:21:37.286Z,23.70
2022-08-22T08:24:09.685Z,23.80
2022-08-22T08:27:06.912Z,23.80
2022-08-22T08:29:36.240Z,23.90
2022-08-22T08:32:09.826Z,23.90
2022-08-22T08:34:43.263Z,23.90
2022-08-22T08:37:22.446Z,24.00
2022-08-22T08:39:56.311Z,24.00
2022-08-22T08:43:19.326Z,24.20
2022-08-22T08:46:24.798Z,24.30
2022-08-22T08:49:31.290Z,24.40
2022-08-22T08:52:44.373Z,24.40
2022-08-22T08:55:30.383Z,24.50
2022-08-22T08:58:43.608Z,24.60
2022-08-22T09:01:35.331Z,24.60
2022-08-22T09:04:39.373Z,24.70
2022-08-22T09:07:40.729Z,24.80
2022-08-22T09:10:41.502Z,24.90
2022-08-22T09:13:41.685Z,25.00
2022-08-22T09:16:45.014Z,25.00
2022-08-22T09:19:52.530Z,25.10
2022-08-22T09:22:59.488Z,25.10
2022-08-22T09:25:38.647Z,25.20
2022-08-22T09:28:24.345Z,25.20
2022-08-22T09:31:48.371Z,25.30
2022-08-22T09:34:31.054Z,25.30
2022-08-22T09:37:17.773Z,25.50
2022-08-22T09:39:59.914Z,25.60
2022-08-22T09:42:42.694Z,25.70
2022-08-22T09:45:39.698Z,25.80
2022-08-22T09:48:26.528Z,26.00
2022-08-22T09:51:32.576Z,26.00
2022-08-22T09:54:24.253Z,26.00
2022-08-22T09:57:22.862Z,26.10
2022-08-22T10:00:34.485Z,26.30
2022-08-22T10:03:18.890Z,26.30
2022-08-22T10:06:00.067Z,26.30
2022-08-22T10:08:50.513Z,26.20
2022-08-22T10:11:31.126Z,26.20
2022-08-22T10:14:09.420Z,26.10
2022-08-22T10:17:07.133Z,26.20
2022-08-22T10:19:43.474Z,26.30
2022-08-22T10:22:29.777Z,26.40
2022-08-22T10:25:16.277Z,26.50
2022-08-22T10:28:10.640Z,26.50
2022-08-22T10:30:54.721Z,26.60
2022-08-22T10:33:32.967Z,26.70
2022-08-22T10:36:12.039Z,26.90
2022-08-22T10:38:47.405Z,27.10
2022-08-22T10:41:38.662Z,27.30
2022-08-22T10:44:25.045Z,27.30
2022-08-22T10:47:01.384Z,27.50
2022-08-22T10:49:39.817Z,27.40
2022-08-22T10:52:16.326Z,27.60
2022-08-22T10:54:51.861Z,27.60
2022-08-22T10:58:04.693Z,27.70
2022-08-22T11:00:50.951Z,27.80
2022-08-22T11:03:36.733Z,28.00
2022-08-22T11:06:14.368Z,28.20
2022-08-22T11:09:10.728Z,28.50
2022-08-22T11:11:48.991Z,29.10
2022-08-22T11:15:04.537Z,29.40
2022-08-22T11:18:13.022Z,29.30
2022-08-22T11:21:00.137Z,29.20
2022-08-22T11:23:45.284Z,29.10
2022-08-22T11:26:46.774Z,29.30
2022-08-22T11:29:43.558Z,29.60
2022-08-22T11:32:24.981Z,29.40
2022-08-22T11:35:01.630Z,30.10
2022-08-22T11:37:54.818Z,30.80
2022-08-22T11:40:37.985Z,30.90
2022-08-22T11:43:34.290Z,31.40
2022-08-22T11:46:19.995Z,31.80
2022-08-22T11:49:14.566Z,31.90
2022-08-22T11:52:08.525Z,31.80
2022-08-22T11:55:11.576Z,32.70
2022-08-22T11:57:44.356Z,33.90
2022-08-22T12:00:32.352Z,34.70
2022-08-22T12:03:19.457Z,35.40
2022-08-22T12:05:55.987Z,36.00
2022-08-22T12:09:04.337Z,36.90
2022-08-22T12:11:49.568Z,37.40
2022-08-22T12:14:29.289Z,38.00
2022-08-22T12:17:28.590Z,38.00
2022-08-22T12:20:28.690Z,37.70
2022-08-22T12:23:40.776Z,38.10
2022-08-22T12:26:30.957Z,38.50
2022-08-22T12:29:28.561Z,39.20
2022-08-22T12:32:53.633Z,39.80
2022-08-22T12:35:39.210Z,38.90
2022-08-22T12:38:38.057Z,37.30
2022-08-22T12:41:40.051Z,36.00
2022-08-22T12:44:38.259Z,36.00
2022-08-22T12:47:32.137Z,37.10
2022-08-22T12:50:26.787Z,37.30
2022-08-22T12:53:23.766Z,36.70
2022-08-22T12:56:10.377Z,35.50
2022-08-22T12:59:07.736Z,34.90
2022-08-22T13:01:43.373Z,35.70
2022-08-22T13:04:19.322Z,37.10
2022-08-22T13:07:17.314Z,37.60
2022-08-22T13:09:52.488Z,36.80
2022-08-22T13:12:30.512Z,36.00
2022-08-22T13:15:10.732Z,35.80
2022-08-22T13:17:45.773Z,36.50
2022-08-22T13:20:27.220Z,37.60
2022-08-22T13:22:58.056Z,38.70
2022-08-22T13:25:31.472Z,39.70
2022-08-22T13:28:04.727Z,40.60
2022-08-22T13:30:38.409Z,41.10
2022-08-22T13:33:12.631Z,41.20
2022-08-22T13:35:52.364Z,41.10
2022-08-22T13:38:27.087Z,41.00
2022-08-22T13:40:59.248Z,41.20
2022-08-22T13:43:34.378Z,41.60
2022-08-22T13:46:11.049Z,41.60
2022-08-22T13:48:52.014Z,41.80
2022-08-22T13:51:29.815Z,42.00
2022-08-22T13:54:20.241Z,42.20
2022-08-22T13:57:13.393Z,42.00
2022-08-22T13:59:54.223Z,41.30
2022-08-22T14:02:59.865Z,41.00
2022-08-22T14:05:36.393Z,40.60
2022-08-22T14:08:18.503Z,40.20
2022-08-22T14:10:55.302Z,39.90
2022-08-22T14:13:42.199Z,39.70
2022-08-22T14:16:23.963Z,39.40
2022-08-22T14:18:59.228Z,39.10
2022-08-22T14:21:48.476Z,38.40
2022-08-22T14:24:25.830Z,37.90
2022-08-22T14:27:05.279Z,37.50
2022-08-22T14:29:50.465Z,37.40
2022-08-22T14:32:41.992Z,37.60
2022-08-22T14:35:29.185Z,37.70
2022-08-22T14:38:29.794Z,37.90
2022-08-22T14:41:06.905Z,38.00
2022-08-22T14:44:03.911Z,37.30
2022-08-22T14:46:44.042Z,36.90
2022-08-22T14:49:29.988Z,36.90
2022-08-22T14:52:08.865Z,36.60
2022-08-22T14:54:39.486Z,35.80
2022-08-22T14:57:20.118Z,35.20
2022-08-22T14:59:53.313Z,34.50
2022-08-22T15:02:31.564Z,33.90
2022-08-22T15:05:05.445Z,33.50
2022-08-22T15:07:37.577Z,32.90
2022-08-22T15:10:21.689Z,32.60
2022-08-22T15:12:53.904Z,32.20
2022-08-22T15:15:41.083Z,32.10
2022-08-22T15:18:33.695Z,32.00
2022-08-22T15:21:06.997Z,32.00
2022-08-22T15:23:45.193Z,31.80
2022-08-22T15:26:28.618Z,31.40
2022-08-22T15:29:09.003Z,31.30
2022-08-22T15:31:41.570Z,31.10
2022-08-22T15:34:25.417Z,30.80
2022-08-22T15:37:07.811Z,30.70
2022-08-22T15:40:02.850Z,30.40
2022-08-22T15:42:43.386Z,30.30
2022-08-22T15:45:30.182Z,30.10
2022-08-22T15:48:08.077Z,29.90
2022-08-22T15:50:41.982Z,29.80
2022-08-22T15:53:21.199Z,29.80
2022-08-22T15:56:30.829Z,29.70
2022-08-22T15:59:30.949Z,29.60
2022-08-22T16:02:33.274Z,29.50
2022-08-22T16:05:27.595Z,29.50
2022-08-22T16:08:11.521Z,29.30
2022-08-22T16:10:44.393Z,29.20
2022-08-22T16:13:38.194Z,29.10
2022-08-22T16:16:13.320Z,29.10
2022-08-22T16:19:22.895Z,29.10
2022-08-22T16:22:15.847Z,29.00
2022-08-22T16:25:10.830Z,29.00
2022-08-22T16:27:56.524Z,29.00
2022-08-22T16:30:39.068Z,28.90
2022-08-22T16:33:17.987Z,28.90
2022-08-22T16:36:42.223Z,28.90
2022-08-22T16:39:29.658Z,28.90
2022-08-22T16:42:28.957Z,28.90
2022-08-22T16:45:13.938Z,28.90
2022-08-22T16:47:52.281Z,28.80
2022-08-22T16:50:40.862Z,28.90
2022-08-22T16:53:51.429Z,28.90
2022-08-22T16:56:30.410Z,28.80
2022-08-22T16:59:25.411Z,28.80
2022-08-22T17:02:23.399Z,28.70
2022-08-22T17:05:10.909Z,28.60
2022-08-22T17:08:08.476Z,28.60
2022-08-22T17:10:57.771Z,28.50
2022-08-22T17:13:48.298Z,28.50
2022-08-22T17:16:41.192Z,28.40
2022-08-22T17:19:38.409Z,28.40
2022-08-22T17:22:27.174Z,28.30
2022-08-22T17:25:21.697Z,28.20
2022-08-22T17:28:07.560Z,28.10
2022-08-22T17:30:53.621Z,28.10
2022-08-22T17:34:01.196Z,28.00
2022-08-22T17:36:47.242Z,28.00
2022-08-22T17:39:42.363Z,28.00
2022-08-22T17:42:39.026Z,27.80
2022-08-22T17:45:27.744Z,27.70
2022-08-22T17:48:07.941Z,27.60
2022-08-22T17:50:49.723Z,27.50
2022-08-22T17:53:34.017Z,27.40
2022-08-22T17:56:15.806Z,27.30
2022-08-22T17:58:59.021Z,27.20
2022-08-22T18:01:47.264Z,27.00
2022-08-22T18:04:29.850Z,26.90
2022-08-22T18:07:22.575Z,26.70
2022-08-22T18:09:57.947Z,26.60
2022-08-22T18:12:35.102Z,26.50
2022-08-22T18:15:20.448Z,26.30
2022-08-22T18:17:54.617Z,26.30
2022-08-22T18:20:31.721Z,26.20
2022-08-22T18:23:21.460Z,26.10
2022-08-22T18:26:14.034Z,26.00
2022-08-22T18:28:52.614Z,25.90
2022-08-22T18:31:38.743Z,25.80
2022-08-22T18:34:21.630Z,25.60
2022-08-22T18:36:59.175Z,25.50
2022-08-22T18:39:37.627Z,25.40
2022-08-22T18:42:22.136Z,25.30
2022-08-22T18:44:50.847Z,25.20
2022-08-22T18:47:27.650Z,25.10
2022-08-22T18:49:58.427Z,25.00
2022-08-22T18:52:41.088Z,24.90
2022-08-22T18:55:49.464Z,24.80
2022-08-22T18:58:42.527Z,24.70
2022-08-22T19:01:44.594Z,24.50
2022-08-22T19:04:47.660Z,24.40
2022-08-22T19:07:38.453Z,24.30
2022-08-22T19:10:34.288Z,24.10
2022-08-22T19:13:37.876Z,24.10
2022-08-22T19:16:39.878Z,24.00
2022-08-22T19:19:17.560Z,23.90
2022-08-22T19:22:24.773Z,23.80
2022-08-22T19:25:15.894Z,23.80
2022-08-22T19:27:48.709Z,23.70
2022-08-22T19:30:43.829Z,23.60
2022-08-22T19:33:13.790Z,23.50
2022-08-22T19:36:06.776Z,23.60
2022-08-22T19:39:00.254Z,23.50
2022-08-22T19:41:53.495Z,23.40
2022-08-22T19:44:38.696Z,23.40
2022-08-22T19:47:27.044Z,23.40
2022-08-22T19:50:05.431Z,23.30
2022-08-22T19:53:01.934Z,23.30
2022-08-22T19:55:54.456Z,23.20
2022-08-22T19:58:33.570Z,23.20
2022-08-22T20:01:36.675Z,23.20
2022-08-22T20:04:20.509Z,23.10
2022-08-22T20:07:03.040Z,23.10
2022-08-22T20:09:46.412Z,23.00
2022-08-22T20:12:30.736Z,22.90
2022-08-22T20:15:11.521Z,22.90
2022-08-22T20:17:43.770Z,22.90
2022-08-22T20:20:36.031Z,22.80
2022-08-22T20:23:15.751Z,22.80
2022-08-22T20:25:50.585Z,22.70
2022-08-22T20:28:37.313Z,22.70
2022-08-22T20:31:12.240Z,22.60
2022-08-22T20:33:43.598Z,22.50
2022-08-22T20:36:27.626Z,22.50
2022-08-22T20:39:02.527Z,22.40
2022-08-22T20:41:37.356Z,22.40
2022-08-22T20:44:16.014Z,22.40
2022-08-22T20:46:59.096Z,22.30
2022-08-22T20:49:33.700Z,22.40
2022-08-22T20:52:07.431Z,22.40
2022-08-22T20:54:38.916Z,22.30
2022-08-22T20:57:17.313Z,22.30
2022-08-22T20:59:56.893Z,22.40
2022-08-22T21:02:31.492Z,22.40
2022-08-22T21:05:05.546Z,22.30
2022-08-22T21:07:37.541Z,22.30
2022-08-22T21:10:35.464Z,22.30
2022-08-22T21:13:11.206Z,22.30
2022-08-22T21:15:45.788Z,22.30
2022-08-22T21:18:26.938Z,22.30
2022-08-22T21:21:05.166Z,22.10
2022-08-22T21:23:38.170Z,22.20
2022-08-22T21:26:11.205Z,22.20
2022-08-22T21:28:56.297Z,22.20
2022-08-22T21:31:31.189Z,22.20
2022-08-22T21:34:01.245Z,22.20
2022-08-22T21:36:32.572Z,22.20
2022-08-22T21:39:13.440Z,22.20
2022-08-22T21:41:45.256Z,22.10
2022-08-22T21:44:33.481Z,22.10
2022-08-22T21:47:30.176Z,22.10
2022-08-22T21:50:27.771Z,22.20
2022-08-22T21:53:27.608Z,22.20
2022-08-22T21:56:13.381Z,22.20
2022-08-22T21:58:42.699Z,22.20
2022-08-22T22:01:33.864Z,22.20
2022-08-22T22:04:03.493Z,22.10
2022-08-22T22:06:31.949Z,22.10
2022-08-22T22:09:00.073Z,22.20
2022-08-22T22:11:28.229Z,22.20
2022-08-22T22:13:56.988Z,22.20
2022-08-22T22:16:29.209Z,22.20
2022-08-22T22:18:57.886Z,22.20
2022-08-22T22:21:28.545Z,22.20
2022-08-22T22:23:58.474Z,22.20
2022-08-22T22:26:29.074Z,22.20
2022-08-22T22:28:59.162Z,22.10
2022-08-22T22:31:28.508Z,22.10
2022-08-22T22:33:56.724Z,22.10
2022-08-22T22:36:28.685Z,22.10
2022-08-22T22:38:58.001Z,22.10
2022-08-22T22:41:26.544Z,22.00
2022-08-22T22:43:56.061Z,22.00
2022-08-22T22:46:27.143Z,22.10
2022-08-22T22:48:56.458Z,22.00
2022-08-22T22:51:27.122Z,22.00
2022-08-22T22:53:57.790Z,22.00
2022-08-22T22:56:26.431Z,22.00
2022-08-22T22:59:00.789Z,22.00
2022-08-22T23:02:03.178Z,21.90
2022-08-22T23:04:33.398Z,22.00
2022-08-22T23:07:04.530Z,21.80
2022-08-22T23:09:38.708Z,21.90
2022-08-22T23:12:15.053Z,21.90
2022-08-22T23:14:43.547Z,21.90
2022-08-22T23:17:12.070Z,21.80
2022-08-22T23:19:40.119Z,21.80
2022-08-22T23:22:11.328Z,21.80
2022-08-22T23:24:41.196Z,21.80
2022-08-22T23:27:12.196Z,21.80
2022-08-22T23:29:42.336Z,21.80
2022-08-22T23:32:12.720Z,21.80
2022-08-22T23:34:46.159Z,21.80
2022-08-22T23:37:19.848Z,21.80
2022-08-22T23:39:48.926Z,21.80
2022-08-22T23:42:18.121Z,21.70
2022-08-22T23:44:47.203Z,21.70
2022-08-22T23:47:16.828Z,21.70
2022-08-22T23:49:45.616Z,21.70
2022-08-22T23:52:15.520Z,21.70
2022-08-22T23:54:44.646Z,21.70
2022-08-22T23:57:13.897Z,21.60
2022-08-22T23:59:47.938Z,21.70
